Time,TemperatureF,DewpointF,PressureIn,WindDirection,WindDirectionDegrees,WindSpeedMPH,WindSpeedGustMPH,Humidity,HourlyPrecipIn,Conditions,Clouds,dailyrainin,SoftwareType,DateUTC
2013-04-18 00:02:00,36.0,35.0,29.83,NW,314,13.6,19.6,96,0.00,-RA,SKC,0.00,WeatherDisplay:10.37,2013-04-18 05:02:00,
2013-04-18 00:07:00,36.0,34.7,29.83,NNW,347,12.7,20.7,95,0.00,-RA,SKC,0.00,WeatherDisplay:10.37,2013-04-18 05:07:00,
2013-04-18 00:12:00,36.0,34.7,29.82,North,357,9.1,15.0,95,0.00,-RA,SKC,0.00,WeatherDisplay:10.37,2013-04-18 05:12:00,
2013-04-18 00:17:00,36.0,34.7,29.81,NNW,332,10.6,12.7,95,0.00,-RA,SKC,0.00,WeatherDisplay:10.37,2013-04-18 05:17:00,
2013-04-18 00:22:00,35.9,34.6,29.81,North,360,12.7,18.4,95,0.00,-RA,SKC,0.00,WeatherDisplay:10.37,2013-04-18 05:22:00,
2013-04-18 00:27:00,35.8,34.5,29.79,North,349,14.5,20.7,95,0.01,-RA,SKC,0.01,WeatherDisplay:10.37,2013-04-18 05:27:00,
2013-04-18 00:32:00,35.7,34.4,29.79,NW,325,14.7,26.5,95,0.02,-RA,SKC,0.02,WeatherDisplay:10.37,2013-04-18 05:32:00,
2013-04-18 00:37:00,35.6,34.6,29.79,NNE,17,11.9,17.3,96,0.04,-RA,SKC,0.04,WeatherDisplay:10.37,2013-04-18 05:37:00,
2013-04-18 00:42:00,35.5,34.5,29.77,NNE,17,14.2,27.6,96,0.05,RA,SKC,0.05,WeatherDisplay:10.37,2013-04-18 05:42:00,
2013-04-18 00:47:00,35.4,34.4,29.77,North,9,9.4,16.1,96,0.07,RA,SKC,0.07,WeatherDisplay:10.37,2013-04-18 05:47:00,
2013-04-18 00:52:00,35.4,34.4,29.82,NNE,22,10.9,12.0,96,0.10,RA,SKC,0.10,WeatherDisplay:10.37,2013-04-18 05:52:00,
2013-04-18 00:57:00,35.4,34.4,29.82,North,10,12.5,15.0,96,0.10,RA,SKC,0.11,WeatherDisplay:10.37,2013-04-18 05:57:00,
2013-04-18 01:02:00,35.4,34.4,29.85,North,357,4.2,6.9,96,0.12,-SN,SKC,0.12,WeatherDisplay:10.37,2013-04-18 06:02:00,
2013-04-18 01:07:00,35.4,34.4,29.84,NNW,336,5.7,11.5,96,0.13,-SN,SKC,0.13,WeatherDisplay:10.37,2013-04-18 06:07:00,
2013-04-18 01:12:00,35.4,34.4,29.85,NNW,338,6.7,12.7,96,0.15,-SN,SKC,0.15,WeatherDisplay:10.37,2013-04-18 06:12:00,
2013-04-18 01:17:00,35.3,34.3,29.84,NNW,330,10.3,13.8,96,0.17,-SN,SKC,0.17,WeatherDisplay:10.37,2013-04-18 06:17:00,
2013-04-18 01:22:00,35.2,34.2,29.83,NNW,341,10.3,13.0,96,0.18,-SN,SKC,0.18,WeatherDisplay:10.37,2013-04-18 06:22:00,
2013-04-18 01:27:00,35.2,34.2,29.81,NW,322,10.8,17.3,96,0.18,-SN,SKC,0.20,WeatherDisplay:10.37,2013-04-18 06:27:00,
2013-04-18 01:32:00,35.1,34.3,29.80,NNE,20,9.3,18.4,97,0.19,-SN,SKC,0.21,WeatherDisplay:10.37,2013-04-18 06:32:00,
2013-04-18 01:37:00,35.0,34.2,29.78,NNW,345,11.1,20.7,97,0.18,-SN,SKC,0.22,WeatherDisplay:10.37,2013-04-18 06:37:00,
2013-04-18 01:42:00,35.0,34.2,29.81,NNW,342,8.9,20.7,97,0.17,-SN,SKC,0.22,WeatherDisplay:10.37,2013-04-18 06:42:00,
2013-04-18 01:47:00,35.1,34.3,29.82,NNW,331,12.7,13.0,97,0.15,-SN,SKC,0.22,WeatherDisplay:10.37,2013-04-18 06:47:00,
2013-04-18 01:52:00,35.0,34.2,29.79,NNW,331,14.2,23.0,97,0.13,-SN,SKC,0.23,WeatherDisplay:10.37,2013-04-18 06:52:00,
2013-04-18 01:57:00,34.9,34.1,29.79,NNW,327,12.8,17.3,97,0.14,-SN,SKC,0.25,WeatherDisplay:10.37,2013-04-18 06:57:00,
2013-04-18 02:02:00,34.8,34.0,29.80,North,349,14.1,19.6,97,0.14,-SN,SKC,0.26,WeatherDisplay:10.37,2013-04-18 07:02:00,
2013-04-18 02:07:00,34.8,34.0,29.81,NNW,342,9.3,15.0,97,0.14,-SN,SKC,0.27,WeatherDisplay:10.37,2013-04-18 07:07:00,
2013-04-18 02:12:00,34.8,34.0,29.82,NNW,327,7.8,12.7,97,0.13,-SN,SKC,0.28,WeatherDisplay:10.37,2013-04-18 07:12:00,
2013-04-18 02:17:00,34.8,34.0,29.83,North,349,11.2,16.1,97,0.11,-SN,SKC,0.28,WeatherDisplay:10.37,2013-04-18 07:17:00,
2013-04-18 02:22:00,34.8,34.0,29.82,North,351,9.3,14.0,97,0.10,-SN,SKC,0.28,WeatherDisplay:10.37,2013-04-18 07:22:00,
2013-04-18 02:27:00,34.7,33.9,29.82,NNW,340,10.2,18.4,97,0.11,-SN,SKC,0.30,WeatherDisplay:10.37,2013-04-18 07:27:00,
2013-04-18 02:32:00,34.7,33.9,29.83,NW,315,5.9,9.2,97,0.10,-SN,SKC,0.31,WeatherDisplay:10.37,2013-04-18 07:32:00,
2013-04-18 02:37:00,34.6,33.8,29.80,NNW,329,10.6,12.7,97,0.09,-SN,SKC,0.31,WeatherDisplay:10.37,2013-04-18 07:37:00,
2013-04-18 02:42:00,34.5,33.7,29.81,NNW,327,8.2,15.0,97,0.09,-SN,SKC,0.31,WeatherDisplay:10.37,2013-04-18 07:42:00,
2013-04-18 02:47:00,34.5,33.7,29.81,NW,320,10.2,16.1,97,0.09,-SN,SKC,0.31,WeatherDisplay:10.37,2013-04-18 07:47:00,
2013-04-18 02:52:00,34.5,33.7,29.79,NNE,25,9.5,23.0,97,0.08,-SN,SKC,0.32,WeatherDisplay:10.37,2013-04-18 07:52:00,
2013-04-18 02:57:00,34.3,33.5,29.75,NNW,340,13.7,18.4,97,0.09,-SN,SKC,0.33,WeatherDisplay:10.37,2013-04-18 07:57:00,
2013-04-18 03:02:00,34.2,33.4,29.78,North,3,8.3,17.3,97,0.09,-RA,SKC,0.36,WeatherDisplay:10.37,2013-04-18 08:02:00,
2013-04-18 03:07:00,34.2,33.4,29.77,NNW,338,11.9,17.3,97,0.10,-RA,SKC,0.37,WeatherDisplay:10.37,2013-04-18 08:07:00,
2013-04-18 03:12:00,34.1,33.3,29.77,NW,320,15.3,19.6,97,0.09,-RA,SKC,0.38,WeatherDisplay:10.37,2013-04-18 08:12:00,
2013-04-18 03:17:00,34.1,33.3,29.76,NNW,330,10.7,15.0,97,0.10,-RA,SKC,0.38,WeatherDisplay:10.37,2013-04-18 08:17:00,
2013-04-18 03:22:00,34.0,33.2,29.74,WNW,290,13.4,19.6,97,0.10,-RA,SKC,0.38,WeatherDisplay:10.37,2013-04-18 08:22:00,
2013-04-18 03:27:00,33.9,33.1,29.74,NNW,338,13.0,20.7,97,0.08,-RA,SKC,0.38,WeatherDisplay:10.37,2013-04-18 08:27:00,
2013-04-18 03:32:00,33.9,33.1,29.74,North,356,12.9,19.6,97,0.07,-RA,SKC,0.38,WeatherDisplay:10.37,2013-04-18 08:32:00,
2013-04-18 03:37:00,33.9,33.1,29.74,NNW,344,13.6,25.3,97,0.07,-RA,SKC,0.38,WeatherDisplay:10.37,2013-04-18 08:37:00,
2013-04-18 03:42:00,33.8,33.0,29.73,NW,326,10.1,17.3,97,0.07,OVC,SKC,0.38,WeatherDisplay:10.37,2013-04-18 08:42:00,
2013-04-18 03:47:00,33.8,33.0,29.75,NNW,336,14.8,19.6,97,0.07,OVC,SKC,0.38,WeatherDisplay:10.37,2013-04-18 08:47:00,
2013-04-18 03:52:00,33.8,33.0,29.75,NNW,328,7.6,11.5,97,0.06,OVC,SKC,0.38,WeatherDisplay:10.37,2013-04-18 08:52:00,
2013-04-18 03:57:00,33.8,33.0,29.76,NNW,327,13.3,18.4,97,0.05,OVC,SKC,0.38,WeatherDisplay:10.37,2013-04-18 08:57:00,
2013-04-18 04:02:00,33.8,33.0,29.74,NNW,335,13.5,18.4,97,0.02,OVC,SKC,0.38,WeatherDisplay:10.37,2013-04-18 09:02:00,
2013-04-18 04:07:00,33.8,33.0,29.73,North,9,14.7,19.6,97,0.01,OVC,SKC,0.38,WeatherDisplay:10.37,2013-04-18 09:07:00,
2013-04-18 04:12:00,33.8,33.0,29.73,NNW,338,11.0,15.0,97,0.00,OVC,SKC,0.38,WeatherDisplay:10.37,2013-04-18 09:12:00,
2013-04-18 04:17:00,33.8,33.0,29.73,NNW,328,14.1,18.4,97,0.00,OVC,SKC,0.38,WeatherDisplay:10.37,2013-04-18 09:17:00,
2013-04-18 04:22:00,33.8,33.0,29.73,NW,325,11.5,13.8,97,0.00,OVC,SKC,0.38,WeatherDisplay:10.37,2013-04-18 09:22:00,
2013-04-18 04:27:00,33.8,33.0,29.74,NNW,344,14.9,20.7,97,0.00,OVC,SKC,0.38,WeatherDisplay:10.37,2013-04-18 09:27:00,
2013-04-18 04:32:00,33.7,32.9,29.74,North,359,11.6,18.4,97,0.00,OVC,SKC,0.38,WeatherDisplay:10.37,2013-04-18 09:32:00,
2013-04-18 04:37:00,33.7,32.9,29.74,North,351,13.2,20.7,97,0.00,OVC,SKC,0.38,WeatherDisplay:10.37,2013-04-18 09:37:00,
2013-04-18 04:42:00,33.7,32.9,29.75,NNW,328,9.2,13.8,97,0.00,OVC,SKC,0.38,WeatherDisplay:10.37,2013-04-18 09:42:00,
2013-04-18 04:47:00,33.7,32.9,29.76,NW,325,10.1,16.1,97,0.00,OVC,SKC,0.38,WeatherDisplay:10.37,2013-04-18 09:47:00,
2013-04-18 04:52:00,33.8,32.8,29.76,NW,320,10.1,16.1,96,0.00,OVC,SKC,0.38,WeatherDisplay:10.37,2013-04-18 09:52:00,
2013-04-18 04:58:00,33.7,32.7,29.75,North,359,10.8,15.0,96,0.00,OVC,SKC,0.38,WeatherDisplay:10.37,2013-04-18 09:58:00,
2013-04-18 05:03:00,33.6,32.6,29.72,NNW,342,11.8,19.6,96,0.00,OVC,SKC,0.38,WeatherDisplay:10.37,2013-04-18 10:03:00,
2013-04-18 05:08:00,33.5,32.5,29.73,North,359,6.2,16.1,96,0.00,OVC,SKC,0.38,WeatherDisplay:10.37,2013-04-18 10:08:00,
2013-04-18 05:13:00,33.5,32.7,29.74,NNW,330,13.4,19.6,97,0.00,OVC,SKC,0.38,WeatherDisplay:10.37,2013-04-18 10:13:00,
2013-04-18 05:18:00,33.4,32.6,29.74,NW,320,13.3,18.4,97,0.00,OVC,SKC,0.38,WeatherDisplay:10.37,2013-04-18 10:18:00,
2013-04-18 05:23:00,33.3,32.5,29.74,North,355,9.9,13.8,97,0.00,OVC,SKC,0.38,WeatherDisplay:10.37,2013-04-18 10:23:00,
2013-04-18 05:28:00,33.3,32.5,29.74,North,349,10.9,15.0,97,0.00,OVC,SKC,0.38,WeatherDisplay:10.37,2013-04-18 10:28:00,
2013-04-18 05:33:00,33.3,32.5,29.74,NNW,327,8.7,12.0,97,0.00,OVC,SKC,0.38,WeatherDisplay:10.37,2013-04-18 10:33:00,
2013-04-18 05:38:00,33.3,32.5,29.74,North,11,11.6,12.7,97,0.00,OVC,SKC,0.38,WeatherDisplay:10.37,2013-04-18 10:38:00,
2013-04-18 05:43:00,33.3,32.5,29.73,NNW,335,7.1,11.5,97,0.00,OVC,SKC,0.38,WeatherDisplay:10.37,2013-04-18 10:43:00,
2013-04-18 05:48:00,33.2,32.4,29.73,NNW,336,6.0,10.0,97,0.00,OVC,SKC,0.38,WeatherDisplay:10.37,2013-04-18 10:48:00,
2013-04-18 05:53:00,33.2,32.4,29.73,NNW,328,12.2,13.0,97,0.00,OVC,SKC,0.38,WeatherDisplay:10.37,2013-04-18 10:53:00,
2013-04-18 05:58:00,33.2,32.4,29.73,NW,317,8.7,11.5,97,0.00,OVC,SKC,0.38,WeatherDisplay:10.37,2013-04-18 10:58:00,
2013-04-18 06:03:00,33.1,32.3,29.72,NNW,328,9.1,13.8,97,0.00,OVC,SKC,0.38,WeatherDisplay:10.37,2013-04-18 11:03:00,
2013-04-18 06:08:00,33.1,32.3,29.72,NNW,330,7.9,13.8,97,0.01,RA,SKC,0.39,WeatherDisplay:10.37,2013-04-18 11:08:00,
2013-04-18 06:13:00,33.0,32.2,29.71,NNW,342,14.0,24.2,97,0.01,RA,SKC,0.39,WeatherDisplay:10.37,2013-04-18 11:13:00,
2013-04-18 06:18:00,33.0,32.2,29.71,NNE,20,9.7,13.8,97,0.01,OVC,SKC,0.39,WeatherDisplay:10.37,2013-04-18 11:18:00,
2013-04-18 06:23:00,33.0,32.2,29.72,NNW,339,8.9,12.7,97,0.01,-SN,SKC,0.39,WeatherDisplay:10.37,2013-04-18 11:23:00,
2013-04-18 06:28:00,33.0,32.2,29.73,NNW,330,10.9,13.8,97,0.01,-SN,SKC,0.39,WeatherDisplay:10.37,2013-04-18 11:28:00,
2013-04-18 06:33:00,33.0,32.2,29.73,NNW,330,7.1,13.8,97,0.01,-SN,SKC,0.39,WeatherDisplay:10.37,2013-04-18 11:33:00,
2013-04-18 06:38:00,33.0,32.2,29.73,NNW,340,10.4,15.0,97,0.01,-SN,SKC,0.39,WeatherDisplay:10.37,2013-04-18 11:38:00,
2013-04-18 06:43:00,32.9,32.1,29.72,NNE,22,8.7,14.0,97,0.01,-SN,SKC,0.39,WeatherDisplay:10.37,2013-04-18 11:43:00,
2013-04-18 06:48:00,32.9,32.1,29.73,NNW,329,8.6,11.5,97,0.01,-SN,SKC,0.39,WeatherDisplay:10.37,2013-04-18 11:48:00,
2013-04-18 06:53:00,33.0,32.2,29.74,NW,319,8.8,15.0,97,0.01,-SN,SKC,0.39,WeatherDisplay:10.37,2013-04-18 11:53:00,
2013-04-18 06:58:00,33.0,32.2,29.74,NNW,335,9.7,17.3,97,0.01,-SN,SKC,0.39,WeatherDisplay:10.37,2013-04-18 11:58:00,
2013-04-18 07:03:00,33.0,32.2,29.75,NNW,338,5.9,9.2,97,0.01,-SN,SKC,0.39,WeatherDisplay:10.37,2013-04-18 12:03:00,
2013-04-18 07:08:00,33.0,32.2,29.75,NNW,334,10.6,15.0,97,0.00,-SN,SKC,0.39,WeatherDisplay:10.37,2013-04-18 12:08:00,
2013-04-18 07:13:00,33.0,32.2,29.75,North,4,8.8,13.8,97,0.00,-SN,SKC,0.39,WeatherDisplay:10.37,2013-04-18 12:13:00,
2013-04-18 07:18:00,33.0,32.2,29.75,NNW,347,9.1,14.0,97,0.00,-SN,SKC,0.39,WeatherDisplay:10.37,2013-04-18 12:18:00,
2013-04-18 07:23:00,33.0,32.2,29.75,NW,321,8.4,18.4,97,0.01,RA,SKC,0.40,WeatherDisplay:10.37,2013-04-18 12:23:00,
2013-04-18 07:28:00,33.1,32.3,29.76,NW,321,5.9,13.8,97,0.01,RA,SKC,0.40,WeatherDisplay:10.37,2013-04-18 12:28:00,
2013-04-18 07:33:00,33.1,32.3,29.78,NNW,341,7.6,10.4,97,0.01,OVC,SKC,0.40,WeatherDisplay:10.37,2013-04-18 12:33:00,
2013-04-18 07:38:00,33.1,32.3,29.79,NNW,346,4.9,6.0,97,0.01,OVC,SKC,0.40,WeatherDisplay:10.37,2013-04-18 12:38:00,
2013-04-18 07:43:00,33.1,32.3,29.79,NNW,338,8.2,11.5,97,0.01,-SN,SKC,0.40,WeatherDisplay:10.37,2013-04-18 12:43:00,
2013-04-18 07:48:00,33.1,32.3,29.76,NNE,20,7.1,11.5,97,0.01,-SN,SKC,0.40,WeatherDisplay:10.37,2013-04-18 12:48:00,
2013-04-18 07:53:00,33.1,32.3,29.77,NNW,346,7.4,13.8,97,0.01,-SN,SKC,0.40,WeatherDisplay:10.37,2013-04-18 12:53:00,
2013-04-18 07:58:00,33.1,32.3,29.77,NW,317,4.6,9.0,97,0.01,-SN,SKC,0.40,WeatherDisplay:10.37,2013-04-18 12:58:00,
2013-04-18 08:03:00,33.1,32.3,29.77,WNW,299,6.9,11.5,97,0.01,OVC,SKC,0.40,WeatherDisplay:10.37,2013-04-18 13:03:00,
2013-04-18 08:08:00,33.1,32.3,29.78,NW,313,6.8,8.1,97,0.02,RA,SKC,0.41,WeatherDisplay:10.37,2013-04-18 13:08:00,
2013-04-18 08:13:00,33.2,32.4,29.77,West,277,6.4,9.2,97,0.02,RA,SKC,0.41,WeatherDisplay:10.37,2013-04-18 13:13:00,
2013-04-18 08:18:00,33.2,32.4,29.77,NNW,333,6.7,11.5,97,0.02,OVC,SKC,0.41,WeatherDisplay:10.37,2013-04-18 13:18:00,
2013-04-18 08:23:00,33.3,32.5,29.75,NNW,344,9.2,12.7,97,0.01,-SN,SKC,0.41,WeatherDisplay:10.37,2013-04-18 13:23:00,
2013-04-18 08:28:00,33.3,32.5,29.75,NNW,335,8.0,11.5,97,0.01,-SN,SKC,0.41,WeatherDisplay:10.37,2013-04-18 13:28:00,
2013-04-18 08:33:00,33.3,32.5,29.75,NW,314,7.5,11.5,97,0.01,-SN,SKC,0.41,WeatherDisplay:10.37,2013-04-18 13:33:00,
2013-04-18 08:38:00,33.2,32.4,29.77,NNW,336,7.2,9.2,97,0.01,-SN,SKC,0.41,WeatherDisplay:10.37,2013-04-18 13:38:00,
2013-04-18 08:43:00,33.1,32.3,29.77,NW,311,4.6,10.0,97,0.01,OVC,SKC,0.41,WeatherDisplay:10.37,2013-04-18 13:43:00,
2013-04-18 08:48:00,33.1,32.3,29.76,NNW,328,5.9,8.1,97,0.01,OVC,SKC,0.41,WeatherDisplay:10.37,2013-04-18 13:48:00,
2013-04-18 08:53:00,33.1,32.3,29.77,WNW,302,5.9,8.1,97,0.01,OVC,SKC,0.41,WeatherDisplay:10.37,2013-04-18 13:53:00,
2013-04-18 08:58:00,32.9,32.1,29.76,North,349,6.2,8.0,97,0.01,OVC,SKC,0.41,WeatherDisplay:10.37,2013-04-18 13:58:00,
2013-04-18 09:03:00,32.5,31.7,29.76,WNW,300,5.1,9.0,97,0.01,-SN,SKC,0.41,WeatherDisplay:10.37,2013-04-18 14:03:00,
2013-04-18 09:08:00,32.2,31.4,29.75,NW,306,7.7,13.8,97,0.00,-SN,SKC,0.41,WeatherDisplay:10.37,2013-04-18 14:08:00,
2013-04-18 09:13:00,32.1,31.3,29.76,NW,323,6.0,11.5,97,0.00,-SN,SKC,0.41,WeatherDisplay:10.37,2013-04-18 14:13:00,
2013-04-18 09:18:00,32.1,31.3,29.76,NW,311,7.5,10.4,97,0.00,-SN,SKC,0.41,WeatherDisplay:10.37,2013-04-18 14:18:00,
2013-04-18 09:23:00,32.0,31.2,29.76,NNW,336,7.0,11.0,97,0.00,-SN,SKC,0.41,WeatherDisplay:10.37,2013-04-18 14:23:00,
2013-04-18 09:28:00,31.9,31.1,29.76,NW,325,7.7,10.4,97,0.00,-SN,SKC,0.41,WeatherDisplay:10.37,2013-04-18 14:28:00,
2013-04-18 09:33:00,31.8,31.0,29.76,NW,321,8.3,13.0,97,0.00,-SN,SKC,0.41,WeatherDisplay:10.37,2013-04-18 14:33:00,
2013-04-18 09:38:00,31.7,30.9,29.76,NNW,333,8.4,11.5,97,0.00,-SN,SKC,0.41,WeatherDisplay:10.37,2013-04-18 14:38:00,
2013-04-18 09:43:00,31.6,30.8,29.75,NW,314,5.4,10.4,97,0.00,-SN,SKC,0.41,WeatherDisplay:10.37,2013-04-18 14:43:00,
2013-04-18 09:48:00,31.5,31.0,29.75,NW,309,7.2,10.4,98,0.00,-SN,SKC,0.41,WeatherDisplay:10.37,2013-04-18 14:48:00,
2013-04-18 09:53:00,31.4,30.6,29.76,NW,314,8.6,12.7,97,0.00,-SN,SKC,0.41,WeatherDisplay:10.37,2013-04-18 14:53:00,
2013-04-18 09:58:00,31.2,30.4,29.76,NW,314,9.6,16.1,97,0.00,-SN,SKC,0.41,WeatherDisplay:10.37,2013-04-18 14:58:00,
2013-04-18 10:04:00,31.1,30.3,29.76,North,1,6.6,9.2,97,0.00,OVC,SKC,0.41,WeatherDisplay:10.37,2013-04-18 15:04:00,
2013-04-18 10:09:00,31.1,30.6,29.76,WNW,303,8.5,9.2,98,0.00,OVC,SKC,0.41,WeatherDisplay:10.37,2013-04-18 15:09:00,
2013-04-18 10:14:00,30.9,30.4,29.77,NNW,329,9.9,18.4,98,0.00,OVC,SKC,0.41,WeatherDisplay:10.37,2013-04-18 15:14:00,
2013-04-18 10:19:00,30.9,30.4,29.76,NW,312,10.3,16.1,98,0.00,OVC,SKC,0.41,WeatherDisplay:10.37,2013-04-18 15:19:00,
2013-04-18 10:24:00,30.9,30.4,29.77,NW,311,11.0,14.0,98,0.00,OVC,SKC,0.41,WeatherDisplay:10.37,2013-04-18 15:24:00,
2013-04-18 10:29:00,30.9,30.4,29.77,NW,320,7.5,11.5,98,0.00,OVC,SKC,0.41,WeatherDisplay:10.37,2013-04-18 15:29:00,
2013-04-18 10:34:00,31.0,30.5,29.77,NW,309,8.6,13.8,98,0.00,OVC,SKC,0.41,WeatherDisplay:10.37,2013-04-18 15:34:00,
2013-04-18 10:39:00,31.0,30.5,29.76,NNW,342,8.1,17.3,98,0.00,OVC,SKC,0.41,WeatherDisplay:10.37,2013-04-18 15:39:00,
2013-04-18 10:44:00,31.1,30.6,29.76,NW,312,6.3,13.0,98,0.00,-SN,SKC,0.41,WeatherDisplay:10.37,2013-04-18 15:44:00,
2013-04-18 10:49:00,31.2,30.7,29.77,NW,316,7.0,11.5,98,0.00,-SN,SKC,0.41,WeatherDisplay:10.37,2013-04-18 15:49:00,
2013-04-18 10:54:00,31.1,30.6,29.77,NW,309,13.0,15.0,98,0.00,-SN,SKC,0.41,WeatherDisplay:10.37,2013-04-18 15:54:00,
2013-04-18 10:59:00,31.1,30.6,29.77,NW,325,7.8,10.4,98,0.00,-SN,SKC,0.41,WeatherDisplay:10.37,2013-04-18 15:59:00,
2013-04-18 11:04:00,31.0,30.5,29.77,NW,311,7.5,8.1,98,0.00,-SN,SKC,0.41,WeatherDisplay:10.37,2013-04-18 16:04:00,
2013-04-18 11:09:00,31.1,30.6,29.77,NW,319,8.0,13.8,98,0.00,-SN,SKC,0.41,WeatherDisplay:10.37,2013-04-18 16:09:00,
2013-04-18 11:14:00,31.2,30.7,29.77,WNW,283,10.0,11.5,98,0.00,-SN,SKC,0.41,WeatherDisplay:10.37,2013-04-18 16:14:00,
2013-04-18 11:19:00,31.2,30.7,29.77,NW,314,8.9,12.7,98,0.00,-SN,SKC,0.41,WeatherDisplay:10.37,2013-04-18 16:19:00,
2013-04-18 11:24:00,31.2,30.7,29.76,NW,314,10.8,11.5,98,0.00,-SN,SKC,0.41,WeatherDisplay:10.37,2013-04-18 16:24:00,
2013-04-18 11:29:00,31.2,30.7,29.77,North,7,9.1,15.0,98,0.00,-SN,SKC,0.41,WeatherDisplay:10.37,2013-04-18 16:29:00,
2013-04-18 11:34:00,31.3,30.8,29.77,NNW,333,8.3,17.0,98,0.00,-SN,SKC,0.41,WeatherDisplay:10.37,2013-04-18 16:34:00,
2013-04-18 11:39:00,31.4,30.9,29.77,NW,308,9.4,10.4,98,0.00,-SN,SKC,0.41,WeatherDisplay:10.37,2013-04-18 16:39:00,
2013-04-18 11:44:00,31.3,30.8,29.77,NW,317,8.2,16.1,98,0.00,-SN,SKC,0.41,WeatherDisplay:10.37,2013-04-18 16:44:00,
2013-04-18 11:49:00,31.3,30.8,29.77,West,277,5.6,8.1,98,0.00,-SN,SKC,0.41,WeatherDisplay:10.37,2013-04-18 16:49:00,
2013-04-18 11:54:00,31.4,30.9,29.77,NW,308,8.2,8.2,98,0.00,-SN,SKC,0.41,WeatherDisplay:10.37,2013-04-18 16:54:00,
2013-04-18 11:59:00,31.4,30.9,29.76,NNW,335,10.0,18.4,98,0.00,-SN,SKC,0.41,WeatherDisplay:10.37,2013-04-18 16:59:00,
2013-04-18 12:04:00,31.4,30.9,29.77,NW,309,10.7,14.0,98,0.00,-SN,SKC,0.41,WeatherDisplay:10.37,2013-04-18 17:04:00,
2013-04-18 12:09:00,31.4,30.9,29.77,NW,315,9.8,15.0,98,0.00,-SN,SKC,0.41,WeatherDisplay:10.37,2013-04-18 17:09:00,
2013-04-18 12:14:00,31.4,30.9,29.77,NNW,330,8.5,12.7,98,0.00,-SN,SKC,0.41,WeatherDisplay:10.37,2013-04-18 17:14:00,
2013-04-18 12:19:00,31.5,31.0,29.77,WNW,290,9.4,11.5,98,0.00,-SN,SKC,0.41,WeatherDisplay:10.37,2013-04-18 17:19:00,
2013-04-18 12:24:00,31.7,31.2,29.77,NW,307,7.3,11.5,98,0.00,-SN,SKC,0.41,WeatherDisplay:10.37,2013-04-18 17:24:00,
2013-04-18 12:29:00,31.9,31.4,29.76,NNW,333,11.7,18.4,98,0.00,-SN,SKC,0.41,WeatherDisplay:10.37,2013-04-18 17:29:00,
2013-04-18 12:34:00,32.0,31.5,29.76,NW,316,11.7,17.3,98,0.01,-SN,SKC,0.42,WeatherDisplay:10.37,2013-04-18 17:34:00,
2013-04-18 12:39:00,32.1,31.6,29.76,NNE,20,7.6,16.1,98,0.01,-SN,SKC,0.42,WeatherDisplay:10.37,2013-04-18 17:39:00,
2013-04-18 12:44:00,32.3,31.8,29.76,NNW,327,8.7,12.0,98,0.01,-SN,SKC,0.42,WeatherDisplay:10.37,2013-04-18 17:44:00,
2013-04-18 12:49:00,32.5,32.0,29.77,NW,316,12.1,13.8,98,0.01,-SN,SKC,0.42,WeatherDisplay:10.37,2013-04-18 17:49:00,
2013-04-18 12:54:00,32.7,32.2,29.77,NW,310,9.2,11.5,98,0.01,-SN,SKC,0.42,WeatherDisplay:10.37,2013-04-18 17:54:00,
2013-04-18 12:59:00,32.6,32.1,29.77,NW,310,12.4,19.6,98,0.01,-SN,SKC,0.42,WeatherDisplay:10.37,2013-04-18 17:59:00,
2013-04-18 13:04:00,32.5,32.0,29.77,NNW,338,9.9,14.0,98,0.01,OVC,SKC,0.42,WeatherDisplay:10.37,2013-04-18 18:04:00,
2013-04-18 13:09:00,32.4,31.9,29.77,NW,322,9.8,13.8,98,0.01,OVC,SKC,0.42,WeatherDisplay:10.37,2013-04-18 18:09:00,
2013-04-18 13:14:00,32.3,31.8,29.78,NW,304,6.7,10.4,98,0.01,OVC,SKC,0.42,WeatherDisplay:10.37,2013-04-18 18:14:00,
2013-04-18 13:19:00,32.3,31.8,29.78,WNW,301,9.4,12.7,98,0.01,OVC,SKC,0.42,WeatherDisplay:10.37,2013-04-18 18:19:00,
2013-04-18 13:24:00,32.1,31.6,29.78,NW,304,11.5,15.0,98,0.01,-SN,SKC,0.42,WeatherDisplay:10.37,2013-04-18 18:24:00,
2013-04-18 13:29:00,32.1,31.6,29.78,NNW,332,12.0,19.6,98,0.01,-SN,SKC,0.42,WeatherDisplay:10.37,2013-04-18 18:29:00,
2013-04-18 13:34:00,32.0,31.2,29.78,NW,320,9.8,13.8,97,0.00,-SN,SKC,0.42,WeatherDisplay:10.37,2013-04-18 18:34:00,
2013-04-18 13:39:00,32.0,31.2,29.78,NW,311,13.9,20.7,97,0.00,-SN,SKC,0.42,WeatherDisplay:10.37,2013-04-18 18:39:00,
2013-04-18 13:44:00,32.0,31.2,29.78,North,349,10.8,12.7,97,0.00,-SN,SKC,0.42,WeatherDisplay:10.37,2013-04-18 18:44:00,
2013-04-18 13:49:00,31.9,31.1,29.79,NNW,328,13.7,20.7,97,0.00,-SN,SKC,0.42,WeatherDisplay:10.37,2013-04-18 18:49:00,
2013-04-18 13:54:00,32.0,31.2,29.80,North,352,7.8,11.5,97,0.00,-SN,SKC,0.42,WeatherDisplay:10.37,2013-04-18 18:54:00,
2013-04-18 13:59:00,32.0,31.2,29.80,NW,314,14.7,19.6,97,0.00,-SN,SKC,0.42,WeatherDisplay:10.37,2013-04-18 18:59:00,
2013-04-18 14:04:00,32.1,31.3,29.80,WNW,298,8.0,16.1,97,0.00,-SN,SKC,0.42,WeatherDisplay:10.37,2013-04-18 19:04:00,
2013-04-18 14:09:00,32.1,31.3,29.80,West,277,8.7,16.0,97,0.00,-SN,SKC,0.42,WeatherDisplay:10.37,2013-04-18 19:09:00,
2013-04-18 14:14:00,32.1,31.3,29.81,NW,312,11.0,16.1,97,0.00,-SN,SKC,0.42,WeatherDisplay:10.37,2013-04-18 19:14:00,
2013-04-18 14:19:00,32.2,31.4,29.81,NNW,330,10.4,17.3,97,0.00,-SN,SKC,0.42,WeatherDisplay:10.37,2013-04-18 19:19:00,
2013-04-18 14:24:00,32.2,31.4,29.81,NNW,338,9.1,12.7,97,0.00,-SN,SKC,0.42,WeatherDisplay:10.37,2013-04-18 19:24:00,
2013-04-18 14:29:00,32.4,31.6,29.81,NW,316,6.9,15.0,97,0.00,-SN,SKC,0.42,WeatherDisplay:10.37,2013-04-18 19:29:00,
2013-04-18 14:34:00,32.3,31.5,29.81,WNW,297,11.4,13.8,97,0.00,-SN,SKC,0.42,WeatherDisplay:10.37,2013-04-18 19:34:00,
2013-04-18 14:39:00,32.4,31.6,29.81,NW,307,6.7,19.6,97,0.00,-SN,SKC,0.42,WeatherDisplay:10.37,2013-04-18 19:39:00,
2013-04-18 14:44:00,32.5,31.7,29.82,NNW,345,9.9,14.0,97,0.00,-SN,SKC,0.42,WeatherDisplay:10.37,2013-04-18 19:44:00,
2013-04-18 14:49:00,32.5,31.5,29.82,NW,321,7.5,15.0,96,0.00,-SN,SKC,0.42,WeatherDisplay:10.37,2013-04-18 19:49:00,
2013-04-18 14:54:00,32.7,31.7,29.82,WNW,303,11.6,15.0,96,0.00,-SN,SKC,0.42,WeatherDisplay:10.37,2013-04-18 19:54:00,
2013-04-18 14:59:00,32.9,31.6,29.82,NW,323,9.4,15.0,95,0.00,-SN,SKC,0.42,WeatherDisplay:10.37,2013-04-18 19:59:00,
2013-04-18 15:04:00,33.1,31.6,29.82,NNW,335,8.9,19.6,94,0.00,OVC,SKC,0.42,WeatherDisplay:10.37,2013-04-18 20:04:00,
2013-04-18 15:09:00,33.3,31.5,29.82,NW,316,11.1,21.9,93,0.00,OVC,SKC,0.42,WeatherDisplay:10.37,2013-04-18 20:09:00,
2013-04-18 15:14:00,33.3,30.7,29.82,NW,307,12.9,18.4,90,0.00,OVC,SKC,0.42,WeatherDisplay:10.37,2013-04-18 20:14:00,
2013-04-18 15:19:00,33.5,30.6,29.82,NW,312,9.3,17.3,89,0.00,OVC,SKC,0.42,WeatherDisplay:10.37,2013-04-18 20:19:00,
2013-04-18 15:24:00,33.7,30.8,29.83,NW,311,12.0,15.0,89,0.00,OVC,SKC,0.42,WeatherDisplay:10.37,2013-04-18 20:24:00,
2013-04-18 15:29:00,33.9,31.3,29.83,NW,315,11.3,15.0,90,0.00,OVC,SKC,0.42,WeatherDisplay:10.37,2013-04-18 20:29:00,
2013-04-18 15:34:00,33.9,31.3,29.83,WNW,302,7.1,17.3,90,0.00,OVC,SKC,0.42,WeatherDisplay:10.37,2013-04-18 20:34:00,
2013-04-18 15:39:00,33.7,30.5,29.82,NNW,341,9.2,15.0,88,0.00,OVC,SKC,0.42,WeatherDisplay:10.37,2013-04-18 20:39:00,
2013-04-18 15:44:00,33.8,30.9,29.83,NW,325,8.3,13.8,89,0.00,-SN,SKC,0.42,WeatherDisplay:10.37,2013-04-18 20:44:00,
2013-04-18 15:49:00,33.6,31.0,29.83,NW,325,8.8,11.5,90,0.00,-SN,SKC,0.42,WeatherDisplay:10.37,2013-04-18 20:49:00,
2013-04-18 15:54:00,33.5,31.4,29.83,NW,314,8.4,14.0,92,0.00,-SN,SKC,0.42,WeatherDisplay:10.37,2013-04-18 20:54:00,
2013-04-18 16:00:00,33.4,31.3,29.83,WNW,293,9.7,16.0,92,0.00,-SN,SKC,0.42,WeatherDisplay:10.37,2013-04-18 21:00:00,
2013-04-18 16:05:00,33.3,31.5,29.83,WNW,293,4.3,5.8,93,0.00,-SN,SKC,0.42,WeatherDisplay:10.37,2013-04-18 21:05:00,
2013-04-18 16:10:00,33.2,31.4,29.83,NW,321,9.7,11.5,93,0.00,-SN,SKC,0.42,WeatherDisplay:10.37,2013-04-18 21:10:00,
2013-04-18 16:15:00,33.2,31.7,29.83,WNW,293,8.4,11.5,94,0.00,-SN,SKC,0.42,WeatherDisplay:10.37,2013-04-18 21:15:00,
2013-04-18 16:20:00,33.2,31.7,29.83,NNW,336,5.5,10.4,94,0.00,-SN,SKC,0.42,WeatherDisplay:10.37,2013-04-18 21:20:00,
2013-04-18 16:25:00,33.1,31.6,29.83,NNW,341,7.1,11.5,94,0.00,-SN,SKC,0.42,WeatherDisplay:10.37,2013-04-18 21:25:00,
2013-04-18 16:30:00,33.1,31.6,29.83,NW,304,9.0,11.5,94,0.00,-SN,SKC,0.42,WeatherDisplay:10.37,2013-04-18 21:30:00,
2013-04-18 16:35:00,33.1,31.6,29.83,NW,312,11.7,15.0,94,0.00,-SN,SKC,0.42,WeatherDisplay:10.37,2013-04-18 21:35:00,
2013-04-18 16:40:00,33.3,31.8,29.83,NW,314,8.1,9.2,94,0.00,-SN,SKC,0.42,WeatherDisplay:10.37,2013-04-18 21:40:00,
2013-04-18 16:45:00,33.3,31.2,29.83,WNW,300,9.4,15.0,92,0.00,-SN,SKC,0.42,WeatherDisplay:10.37,2013-04-18 21:45:00,
2013-04-18 16:50:00,33.5,31.4,29.84,NW,314,8.9,11.5,92,0.00,-SN,SKC,0.42,WeatherDisplay:10.37,2013-04-18 21:50:00,
2013-04-18 16:55:00,33.5,31.4,29.84,NW,312,8.1,11.5,92,0.00,-SN,SKC,0.42,WeatherDisplay:10.37,2013-04-18 21:55:00,
2013-04-18 17:00:00,33.4,31.3,29.84,NW,307,6.7,9.2,92,0.00,-SN,SKC,0.42,WeatherDisplay:10.37,2013-04-18 22:00:00,
2013-04-18 17:05:00,33.3,31.2,29.84,WNW,293,8.1,16.0,92,0.00,-SN,SKC,0.42,WeatherDisplay:10.37,2013-04-18 22:05:00,
2013-04-18 17:10:00,33.1,30.8,29.84,NW,321,7.8,10.4,91,0.00,-SN,SKC,0.42,WeatherDisplay:10.37,2013-04-18 22:10:00,
2013-04-18 17:15:00,33.1,31.0,29.84,NNW,331,6.8,11.5,92,0.00,-SN,SKC,0.42,WeatherDisplay:10.37,2013-04-18 22:15:00,
2013-04-18 17:20:00,33.2,30.9,29.85,WNW,298,6.0,9.2,91,0.00,-SN,SKC,0.42,WeatherDisplay:10.37,2013-04-18 22:20:00,
2013-04-18 17:25:00,33.3,30.7,29.84,WNW,300,8.2,17.3,90,0.00,-SN,SKC,0.42,WeatherDisplay:10.37,2013-04-18 22:25:00,
2013-04-18 17:30:00,33.4,30.8,29.85,WNW,291,8.5,14.0,90,0.00,-SN,SKC,0.42,WeatherDisplay:10.37,2013-04-18 22:30:00,
2013-04-18 17:35:00,33.4,30.8,29.84,WNW,291,9.0,15.0,90,0.00,-SN,SKC,0.42,WeatherDisplay:10.37,2013-04-18 22:35:00,
2013-04-18 17:40:00,33.4,30.5,29.85,WNW,301,11.6,15.0,89,0.00,-SN,SKC,0.42,WeatherDisplay:10.37,2013-04-18 22:40:00,
2013-04-18 17:45:00,33.6,30.7,29.85,NW,314,7.0,12.7,89,0.00,OVC,SKC,0.42,WeatherDisplay:10.37,2013-04-18 22:45:00,
2013-04-18 17:50:00,33.7,30.8,29.85,NW,319,8.8,12.7,89,0.00,OVC,SKC,0.42,WeatherDisplay:10.37,2013-04-18 22:50:00,
2013-04-18 17:55:00,33.8,30.6,29.85,NW,312,12.5,18.4,88,0.00,OVC,SKC,0.42,WeatherDisplay:10.37,2013-04-18 22:55:00,
2013-04-18 18:00:00,33.9,30.7,29.85,North,3,7.8,13.0,88,0.00,OVC,SKC,0.42,WeatherDisplay:10.37,2013-04-18 23:00:00,
2013-04-18 18:05:00,34.0,30.5,29.86,NW,309,11.5,13.8,87,0.00,OVC,SKC,0.42,WeatherDisplay:10.37,2013-04-18 23:05:00,
2013-04-18 18:10:00,34.0,30.3,29.86,WNW,300,6.5,13.8,86,0.00,OVC,SKC,0.42,WeatherDisplay:10.37,2013-04-18 23:10:00,
2013-04-18 18:15:00,34.0,30.3,29.86,WNW,301,11.6,17.0,86,0.00,OVC,SKC,0.42,WeatherDisplay:10.37,2013-04-18 23:15:00,
2013-04-18 18:20:00,34.0,30.0,29.86,NW,318,8.7,10.4,85,0.00,OVC,SKC,0.42,WeatherDisplay:10.37,2013-04-18 23:20:00,
2013-04-18 18:25:00,34.0,30.0,29.87,NNW,332,7.9,15.0,85,0.00,OVC,SKC,0.42,WeatherDisplay:10.37,2013-04-18 23:25:00,
2013-04-18 18:30:00,34.0,29.7,29.87,NW,308,9.6,15.0,84,0.00,OVC,SKC,0.42,WeatherDisplay:10.37,2013-04-18 23:30:00,
2013-04-18 18:35:00,34.0,29.7,29.87,NNW,332,7.7,10.4,84,0.00,OVC,SKC,0.42,WeatherDisplay:10.37,2013-04-18 23:35:00,
2013-04-18 18:40:00,34.0,29.7,29.87,WNW,295,7.1,11.5,84,0.00,OVC,SKC,0.42,WeatherDisplay:10.37,2013-04-18 23:40:00,
2013-04-18 18:45:00,34.1,30.1,29.88,WNW,299,9.6,16.0,85,0.00,OVC,SKC,0.42,WeatherDisplay:10.37,2013-04-18 23:45:00,
2013-04-18 18:50:00,34.0,29.4,29.88,WNW,298,9.4,19.6,83,0.00,OVC,SKC,0.42,WeatherDisplay:10.37,2013-04-18 23:50:00,
2013-04-18 18:55:00,34.0,29.4,29.88,WNW,302,6.6,16.1,83,0.00,OVC,SKC,0.42,WeatherDisplay:10.37,2013-04-18 23:55:00,
2013-04-18 19:00:00,33.9,29.6,29.88,NW,316,4.6,8.1,84,0.00,OVC,SKC,0.42,WeatherDisplay:10.37,2013-04-19 00:00:00,
2013-04-18 19:05:00,33.9,29.3,29.88,NW,306,7.9,13.8,83,0.00,OVC,SKC,0.42,WeatherDisplay:10.37,2013-04-19 00:05:00,
2013-04-18 19:10:00,33.8,28.9,29.89,WNW,285,8.8,15.0,82,0.00,OVC,SKC,0.42,WeatherDisplay:10.37,2013-04-19 00:10:00,
2013-04-18 19:15:00,33.8,28.9,29.89,WNW,303,11.1,16.1,82,0.00,OVC,SKC,0.42,WeatherDisplay:10.37,2013-04-19 00:15:00,
2013-04-18 19:20:00,33.7,29.1,29.89,NW,325,9.0,11.5,83,0.00,OVC,SKC,0.42,WeatherDisplay:10.37,2013-04-19 00:20:00,
2013-04-18 19:25:00,33.6,28.7,29.89,NNW,338,10.7,16.1,82,0.00,OVC,SKC,0.42,WeatherDisplay:10.37,2013-04-19 00:25:00,
2013-04-18 19:30:00,33.5,28.9,29.89,WNW,288,8.0,10.4,83,0.00,OVC,SKC,0.42,WeatherDisplay:10.37,2013-04-19 00:30:00,
2013-04-18 19:35:00,33.5,28.9,29.90,NNW,327,8.0,15.0,83,0.00,OVC,SKC,0.42,WeatherDisplay:10.37,2013-04-19 00:35:00,
2013-04-18 19:40:00,33.3,28.7,29.90,NW,304,6.5,11.5,83,0.00,OVC,SKC,0.42,WeatherDisplay:10.37,2013-04-19 00:40:00,
2013-04-18 19:45:00,33.2,28.6,29.90,NW,305,6.8,16.1,83,0.00,OVC,SKC,0.42,WeatherDisplay:10.37,2013-04-19 00:45:00,
2013-04-18 19:50:00,33.1,28.8,29.90,WNW,301,8.5,12.0,84,0.00,OVC,SKC,0.42,WeatherDisplay:10.37,2013-04-19 00:50:00,
2013-04-18 19:55:00,33.0,28.7,29.91,NW,304,10.1,16.0,84,0.00,OVC,SKC,0.42,WeatherDisplay:10.37,2013-04-19 00:55:00,
2013-04-18 20:00:00,33.0,28.4,29.91,WNW,301,13.1,14.0,83,0.00,OVC,SKC,0.42,WeatherDisplay:10.37,2013-04-19 01:00:00,
2013-04-18 20:05:00,32.9,28.6,29.91,NW,316,5.9,15.0,84,0.00,OVC,SKC,0.42,WeatherDisplay:10.37,2013-04-19 01:05:00,
2013-04-18 20:10:00,32.8,28.5,29.91,NW,319,10.4,14.0,84,0.00,OVC,SKC,0.42,WeatherDisplay:10.37,2013-04-19 01:10:00,
2013-04-18 20:15:00,32.7,28.4,29.91,WNW,303,10.7,13.0,84,0.00,OVC,SKC,0.42,WeatherDisplay:10.37,2013-04-19 01:15:00,
2013-04-18 20:20:00,32.5,28.5,29.92,NNW,327,6.3,8.1,85,0.00,OVC,SKC,0.42,WeatherDisplay:10.37,2013-04-19 01:20:00,
2013-04-18 20:25:00,32.3,28.9,29.92,NW,307,7.6,11.5,87,0.00,OVC,SKC,0.42,WeatherDisplay:10.37,2013-04-19 01:25:00,
2013-04-18 20:30:00,32.1,28.4,29.92,WNW,300,7.7,11.5,86,0.00,OVC,SKC,0.42,WeatherDisplay:10.37,2013-04-19 01:30:00,
2013-04-18 20:35:00,32.1,28.1,29.92,WNW,295,4.8,11.5,85,0.00,OVC,SKC,0.42,WeatherDisplay:10.37,2013-04-19 01:35:00,
2013-04-18 20:40:00,32.0,28.3,29.92,WNW,292,6.3,10.4,86,0.00,OVC,SKC,0.42,WeatherDisplay:10.37,2013-04-19 01:40:00,
2013-04-18 20:45:00,32.0,28.3,29.92,NW,306,4.6,16.1,86,0.00,OVC,SKC,0.42,WeatherDisplay:10.37,2013-04-19 01:45:00,
2013-04-18 20:50:00,32.0,28.6,29.92,WNW,301,3.8,5.8,87,0.00,OVC,SKC,0.42,WeatherDisplay:10.37,2013-04-19 01:50:00,
2013-04-18 20:55:00,31.9,28.5,29.92,NW,309,7.9,10.0,87,0.00,OVC,SKC,0.42,WeatherDisplay:10.37,2013-04-19 01:55:00,
2013-04-18 21:00:00,31.9,28.2,29.92,NW,311,6.0,11.5,86,0.00,OVC,SKC,0.42,WeatherDisplay:10.37,2013-04-19 02:00:00,
2013-04-18 21:05:00,31.9,28.2,29.93,WNW,290,7.9,12.7,86,0.00,OVC,SKC,0.42,WeatherDisplay:10.37,2013-04-19 02:05:00,
2013-04-18 21:10:00,31.8,28.1,29.93,NW,307,7.0,7.0,86,0.00,OVC,SKC,0.42,WeatherDisplay:10.37,2013-04-19 02:10:00,
2013-04-18 21:15:00,31.8,28.1,29.93,NW,304,7.7,12.7,86,0.00,OVC,SKC,0.42,WeatherDisplay:10.37,2013-04-19 02:15:00,
2013-04-18 21:20:00,31.7,28.3,29.93,NW,307,6.4,14.0,87,0.00,OVC,SKC,0.42,WeatherDisplay:10.37,2013-04-19 02:20:00,
2013-04-18 21:25:00,31.6,28.2,29.93,SSW,195,5.1,11.5,87,0.00,OVC,SKC,0.42,WeatherDisplay:10.37,2013-04-19 02:25:00,
2013-04-18 21:30:00,31.6,28.5,29.93,NW,315,6.1,12.7,88,0.00,OVC,SKC,0.42,WeatherDisplay:10.37,2013-04-19 02:30:00,
2013-04-18 21:35:00,31.6,28.5,29.94,NW,326,4.8,9.2,88,0.00,OVC,SKC,0.42,WeatherDisplay:10.37,2013-04-19 02:35:00,
2013-04-18 21:40:00,31.6,28.5,29.94,NNW,347,7.0,11.5,88,0.00,OVC,SKC,0.42,WeatherDisplay:10.37,2013-04-19 02:40:00,
2013-04-18 21:45:00,31.6,28.5,29.94,WNW,294,4.1,9.2,88,0.00,OVC,SKC,0.42,WeatherDisplay:10.37,2013-04-19 02:45:00,
2013-04-18 21:50:00,31.7,28.6,29.94,WNW,299,3.8,7.0,88,0.00,OVC,SKC,0.42,WeatherDisplay:10.37,2013-04-19 02:50:00,
2013-04-18 21:55:00,31.7,28.6,29.94,WNW,300,6.3,8.1,88,0.00,OVC,SKC,0.42,WeatherDisplay:10.37,2013-04-19 02:55:00,
2013-04-18 22:00:00,31.7,28.6,29.94,WNW,298,4.7,9.2,88,0.00,OVC,SKC,0.42,WeatherDisplay:10.37,2013-04-19 03:00:00,
2013-04-18 22:05:00,31.6,28.7,29.94,WNW,288,5.5,9.2,89,0.00,OVC,SKC,0.42,WeatherDisplay:10.37,2013-04-19 03:05:00,
2013-04-18 22:11:00,31.5,28.9,29.94,NNW,328,4.0,6.9,90,0.00,OVC,SKC,0.42,WeatherDisplay:10.37,2013-04-19 03:11:00,
2013-04-18 22:15:00,31.4,28.8,29.94,WNW,298,7.2,11.5,90,0.00,OVC,SKC,0.42,WeatherDisplay:10.37,2013-04-19 03:15:00,
2013-04-18 22:21:00,31.6,28.7,29.94,WNW,299,4.8,12.7,89,0.00,OVC,SKC,0.42,WeatherDisplay:10.37,2013-04-19 03:21:00,
2013-04-18 22:26:00,31.9,28.8,29.93,NW,312,6.1,12.7,88,0.00,OVC,SKC,0.42,WeatherDisplay:10.37,2013-04-19 03:26:00,
2013-04-18 22:31:00,32.1,28.7,29.94,WNW,295,6.7,10.4,87,0.00,OVC,SKC,0.42,WeatherDisplay:10.37,2013-04-19 03:31:00,
2013-04-18 22:36:00,32.2,28.5,29.94,NNE,13,6.5,11.5,86,0.00,OVC,SKC,0.42,WeatherDisplay:10.37,2013-04-19 03:36:00,
2013-04-18 22:41:00,32.2,28.5,29.93,NW,308,5.5,10.4,86,0.00,OVC,SKC,0.42,WeatherDisplay:10.37,2013-04-19 03:41:00,
2013-04-18 22:46:00,32.2,28.2,29.93,WNW,294,6.4,10.4,85,0.00,OVC,SKC,0.42,WeatherDisplay:10.37,2013-04-19 03:46:00,
2013-04-18 22:51:00,32.2,28.2,29.93,WNW,297,6.0,10.4,85,0.00,OVC,SKC,0.42,WeatherDisplay:10.37,2013-04-19 03:51:00,
2013-04-18 22:56:00,32.2,28.2,29.93,NW,312,6.5,10.0,85,0.00,OVC,SKC,0.42,WeatherDisplay:10.37,2013-04-19 03:56:00,
2013-04-18 23:01:00,32.3,28.3,29.93,NW,315,6.8,10.4,85,0.00,OVC,SKC,0.42,WeatherDisplay:10.37,2013-04-19 04:01:00,
2013-04-18 23:06:00,32.3,28.0,29.92,NW,306,7.4,11.5,84,0.00,OVC,SKC,0.42,WeatherDisplay:10.37,2013-04-19 04:06:00,
2013-04-18 23:11:00,32.3,28.3,29.93,NW,311,5.5,9.2,85,0.00,OVC,SKC,0.42,WeatherDisplay:10.37,2013-04-19 04:11:00,
2013-04-18 23:16:00,32.3,28.0,29.92,NW,304,8.1,12.0,84,0.00,OVC,SKC,0.42,WeatherDisplay:10.37,2013-04-19 04:16:00,
2013-04-18 23:21:00,32.3,28.0,29.93,NNW,328,8.1,16.1,84,0.00,OVC,SKC,0.42,WeatherDisplay:10.37,2013-04-19 04:21:00,
2013-04-18 23:26:00,32.4,28.1,29.92,NW,314,4.6,8.0,84,0.00,OVC,SKC,0.42,WeatherDisplay:10.37,2013-04-19 04:26:00,
2013-04-18 23:31:00,32.4,28.1,29.92,NW,316,6.9,9.2,84,0.00,OVC,SKC,0.42,WeatherDisplay:10.37,2013-04-19 04:31:00,
2013-04-18 23:36:00,32.4,28.1,29.92,NW,325,6.1,8.1,84,0.00,OVC,SKC,0.42,WeatherDisplay:10.37,2013-04-19 04:36:00,
2013-04-18 23:41:00,32.5,28.2,29.92,WNW,297,7.8,12.0,84,0.00,OVC,SKC,0.42,WeatherDisplay:10.37,2013-04-19 04:41:00,
2013-04-18 23:46:00,32.5,28.2,29.92,NW,316,6.2,8.1,84,0.00,OVC,SKC,0.42,WeatherDisplay:10.37,2013-04-19 04:46:00,
2013-04-18 23:51:00,32.5,28.2,29.92,NW,312,5.7,11.5,84,0.00,OVC,SKC,0.42,WeatherDisplay:10.37,2013-04-19 04:51:00,
2013-04-18 23:56:00,32.5,28.2,29.92,NW,319,5.9,11.5,84,0.00,OVC,SKC,0.42,WeatherDisplay:10.37,2013-04-19 04:56:00,